Time;durP1;ratioP1;P1;durP2;ratioP2;P2;SDS_P1;SDS_P2;PMS_P1;PMS_P2;Temp;Humidity;BMP_temperature;BMP_pressure;BME280_temperature;BME280_humidity;BME280_pressure;Samples;Min_cycle;Max_cycle;Signal;HPM_P1;HPM_P2
2021/03/26 00:00:19;;;;;;;12.55;8.32;;;;;;;;;;4974387;28;20050;-69
2021/03/26 00:02:46;;;;;;;9.55;7.50;;;;;;;;;;4973947;28;20581;-69
2021/03/26 00:05:16;;;;;;;11.95;7.13;;;;;;;;;;4972648;28;20047;-69
2021/03/26 00:07:42;;;;;;;12.60;8.18;;;;;;;;;;4973686;28;20518;-68
2021/03/26 00:10:11;;;;;;;13.55;8.02;;;;;;;;;;4973841;28;20047;-69
2021/03/26 00:12:37;;;;;;;11.35;7.80;;;;;;;;;;4974000;28;20577;-69
2021/03/26 00:15:05;;;;;;;12.18;8.10;;;;;;;;;;4973801;28;20055;-68
2021/03/26 00:17:31;;;;;;;13.77;7.75;;;;;;;;;;4973537;28;20105;-68
2021/03/26 00:19:58;;;;;;;10.57;7.28;;;;;;;;;;4973701;28;20050;-69
2021/03/26 00:22:24;;;;;;;14.98;7.93;;;;;;;;;;4974014;28;20078;-69
2021/03/26 00:24:50;;;;;;;13.63;8.18;;;;;;;;;;4973437;28;20047;-68
2021/03/26 00:27:16;;;;;;;13.27;8.45;;;;;;;;;;4972913;28;20074;-68
2021/03/26 00:29:42;;;;;;;17.80;9.40;;;;;;;;;;4973155;28;20077;-68
2021/03/26 00:32:09;;;;;;;13.68;8.68;;;;;;;;;;4973475;28;20089;-69
2021/03/26 00:34:35;;;;;;;12.23;8.60;;;;;;;;;;4973254;28;20047;-69
2021/03/26 00:37:01;;;;;;;12.75;8.77;;;;;;;;;;4972639;28;20474;-68
2021/03/26 00:39:27;;;;;;;16.35;9.30;;;;;;;;;;4973359;28;20047;-68
2021/03/26 00:41:53;;;;;;;17.48;9.73;;;;;;;;;;4973028;28;20105;-69
2021/03/26 00:44:19;;;;;;;18.33;10.02;;;;;;;;;;4973198;28;20565;-69
2021/03/26 00:46:45;;;;;;;16.45;9.88;;;;;;;;;;4972571;28;20054;-68
2021/03/26 00:49:12;;;;;;;14.63;10.23;;;;;;;;;;4973189;28;20053;-69
2021/03/26 00:51:39;;;;;;;18.05;11.25;;;;;;;;;;4973049;28;20047;-68
2021/03/26 00:54:05;;;;;;;16.48;11.23;;;;;;;;;;4972822;28;20050;-69
2021/03/26 00:56:31;;;;;;;17.50;10.48;;;;;;;;;;4972772;28;20109;-69
2021/03/26 00:58:58;;;;;;;18.63;10.85;;;;;;;;;;4972990;28;20506;-68
2021/03/26 01:01:24;;;;;;;17.10;11.27;;;;;;;;;;4973292;28;20054;-68
2021/03/26 01:03:50;;;;;;;17.60;11.20;;;;;;;;;;4972904;28;20137;-68
2021/03/26 01:06:16;;;;;;;20.48;11.45;;;;;;;;;;4972613;28;20113;-68
2021/03/26 01:08:43;;;;;;;16.15;10.70;;;;;;;;;;4972922;28;20093;-68
2021/03/26 01:11:16;;;;;;;18.42;11.13;;;;;;;;;;4972989;28;20055;-69
2021/03/26 01:13:42;;;;;;;19.85;11.55;;;;;;;;;;4971665;28;20097;-68
2021/03/26 01:16:08;;;;;;;19.25;11.65;;;;;;;;;;4971822;28;20047;-68
2021/03/26 01:18:38;;;;;;;18.33;12.90;;;;;;;;;;4972801;28;20137;-68
2021/03/26 01:21:06;;;;;;;16.13;11.70;;;;;;;;;;4972952;28;20057;-68
2021/03/26 01:23:32;;;;;;;16.73;10.80;;;;;;;;;;4972758;28;20109;-69
2021/03/26 01:25:58;;;;;;;21.75;11.75;;;;;;;;;;4971912;28;20051;-68
2021/03/26 01:28:27;;;;;;;19.17;12.35;;;;;;;;;;4972692;28;20102;-68
2021/03/26 01:30:53;;;;;;;24.92;12.80;;;;;;;;;;4972606;28;20074;-68
2021/03/26 01:33:20;;;;;;;16.80;11.23;;;;;;;;;;4971650;28;20058;-69
2021/03/26 01:35:47;;;;;;;18.20;12.90;;;;;;;;;;4972001;28;20062;-69
2021/03/26 01:38:13;;;;;;;20.85;12.23;;;;;;;;;;4972698;28;20055;-68
2021/03/26 01:40:48;;;;;;;17.27;11.73;;;;;;;;;;4972589;28;20066;-68
2021/03/26 01:43:23;;;;;;;17.90;11.73;;;;;;;;;;4972541;28;20051;-68
2021/03/26 01:45:50;;;;;;;21.42;12.52;;;;;;;;;;4971861;28;20086;-69
2021/03/26 01:48:30;;;;;;;20.23;12.05;;;;;;;;;;4972204;28;20537;-68
2021/03/26 01:50:58;;;;;;;19.65;12.05;;;;;;;;;;4955862;28;20110;-68
2021/03/26 01:53:25;;;;;;;19.23;13.05;;;;;;;;;;4972522;28;20082;-68
2021/03/26 01:55:53;;;;;;;18.52;11.18;;;;;;;;;;4970413;28;20039;-68
2021/03/26 01:58:23;;;;;;;18.48;10.90;;;;;;;;;;4972537;28;20090;-68
2021/03/26 02:01:06;;;;;;;14.98;10.77;;;;;;;;;;4972349;28;20097;-68
2021/03/26 02:03:38;;;;;;;14.90;10.50;;;;;;;;;;4971313;28;20059;-68
2021/03/26 02:06:30;;;;;;;17.92;10.57;;;;;;;;;;4971834;28;20055;-70
2021/03/26 02:09:05;;;;;;;15.50;9.90;;;;;;;;;;4961964;28;20421;-69
2021/03/26 02:11:55;;;;;;;16.83;9.85;;;;;;;;;;4972537;28;20074;-69
2021/03/26 02:14:26;;;;;;;16.70;10.88;;;;;;;;;;4951641;29;20530;-69
2021/03/26 02:16:53;;;;;;;17.73;10.25;;;;;;;;;;4935807;29;20513;-69
2021/03/26 02:19:23;;;;;;;16.63;10.15;;;;;;;;;;4951948;29;20051;-69
2021/03/26 02:21:50;;;;;;;15.93;10.27;;;;;;;;;;4951858;29;20106;-69
2021/03/26 02:24:16;;;;;;;18.75;10.43;;;;;;;;;;4957293;28;20090;-69
2021/03/26 02:26:46;;;;;;;17.50;10.27;;;;;;;;;;4971049;28;20055;-69
2021/03/26 02:29:27;;;;;;;15.55;10.25;;;;;;;;;;4973952;28;20055;-68
2021/03/26 02:32:19;;;;;;;17.70;10.13;;;;;;;;;;4974503;28;20047;-69
2021/03/26 02:35:30;;;;;;;17.58;10.60;;;;;;;;;;4975115;28;20062;-68
2021/03/26 02:38:09;;;;;;;17.10;10.52;;;;;;;;;;4975379;28;20050;-68
2021/03/26 02:40:51;;;;;;;17.05;10.82;;;;;;;;;;4959709;28;20556;-68
2021/03/26 02:43:56;;;;;;;15.48;10.18;;;;;;;;;;4975618;28;20054;-68
2021/03/26 02:46:30;;;;;;;14.18;9.35;;;;;;;;;;4962225;28;20155;-68
2021/03/26 02:49:14;;;;;;;20.60;10.13;;;;;;;;;;4975031;28;20050;-68
2021/03/26 02:51:43;;;;;;;17.42;10.27;;;;;;;;;;4958915;28;20050;-68
2021/03/26 02:54:20;;;;;;;15.77;10.43;;;;;;;;;;4958125;28;20055;-68
2021/03/26 02:56:54;;;;;;;18.52;10.30;;;;;;;;;;4973266;28;20506;-68
2021/03/26 02:59:29;;;;;;;15.70;11.05;;;;;;;;;;4974079;28;20399;-69
2021/03/26 03:01:55;;;;;;;15.73;11.23;;;;;;;;;;4969559;28;20051;-68
2021/03/26 03:04:25;;;;;;;20.20;11.25;;;;;;;;;;4969648;28;20129;-68
2021/03/26 03:06:59;;;;;;;17.20;10.48;;;;;;;;;;4965429;28;20050;-68
2021/03/26 03:09:25;;;;;;;14.60;10.15;;;;;;;;;;4989556;28;20097;-68
2021/03/26 03:12:09;;;;;;;17.00;10.43;;;;;;;;;;4958169;28;20051;-68
2021/03/26 03:14:39;;;;;;;22.23;11.55;;;;;;;;;;4989811;28;20358;-68
2021/03/26 03:17:11;;;;;;;19.08;11.93;;;;;;;;;;4973281;28;20059;-68
2021/03/26 03:19:55;;;;;;;17.25;11.10;;;;;;;;;;4973396;28;20137;-68
2021/03/26 03:22:40;;;;;;;19.30;12.00;;;;;;;;;;4975746;28;20078;-68
2021/03/26 03:25:26;;;;;;;19.10;11.70;;;;;;;;;;4973118;28;20074;-68
2021/03/26 03:28:11;;;;;;;24.92;12.52;;;;;;;;;;4974574;28;20056;-68
2021/03/26 03:30:55;;;;;;;20.42;12.40;;;;;;;;;;4974597;28;20474;-68
2021/03/26 03:33:57;;;;;;;18.38;11.93;;;;;;;;;;4974620;28;20105;-68
2021/03/26 03:36:26;;;;;;;21.48;12.93;;;;;;;;;;4988880;28;20124;-68
2021/03/26 03:39:13;;;;;;;19.20;11.75;;;;;;;;;;4969604;28;20047;-68
2021/03/26 03:41:45;;;;;;;19.77;11.40;;;;;;;;;;4955055;28;20051;-67
2021/03/26 03:44:30;;;;;;;18.02;10.88;;;;;;;;;;4954064;29;20059;-67
2021/03/26 03:47:31;;;;;;;18.23;12.02;;;;;;;;;;4966673;28;20047;-67
2021/03/26 03:50:06;;;;;;;18.88;11.95;;;;;;;;;;4951264;28;20134;-68
2021/03/26 03:52:52;;;;;;;18.70;11.55;;;;;;;;;;4953962;29;20086;-68
2021/03/26 03:55:28;;;;;;;18.60;12.65;;;;;;;;;;4955454;28;20047;-68
2021/03/26 03:58:17;;;;;;;20.73;11.07;;;;;;;;;;4957560;28;20059;-68
2021/03/26 04:00:47;;;;;;;16.98;10.60;;;;;;;;;;4972973;28;20046;-68
2021/03/26 04:03:20;;;;;;;23.67;12.57;;;;;;;;;;4957258;28;20050;-68
2021/03/26 04:06:12;;;;;;;18.13;10.27;;;;;;;;;;4956740;28;20047;-68
2021/03/26 04:08:51;;;;;;;15.65;10.85;;;;;;;;;;4953874;28;20560;-68
2021/03/26 04:11:43;;;;;;;17.10;11.65;;;;;;;;;;4957564;28;20106;-68
2021/03/26 04:14:26;;;;;;;17.75;11.55;;;;;;;;;;4972658;28;20047;-68
2021/03/26 04:17:02;;;;;;;19.45;11.10;;;;;;;;;;4971920;28;20050;-68
2021/03/26 04:19:32;;;;;;;16.02;11.65;;;;;;;;;;4957626;28;20146;-68
2021/03/26 04:22:21;;;;;;;16.42;10.43;;;;;;;;;;4972357;28;20073;-68
2021/03/26 04:25:09;;;;;;;21.10;11.23;;;;;;;;;;4957826;28;20046;-68
2021/03/26 04:27:43;;;;;;;19.27;10.00;;;;;;;;;;4973261;28;20051;-68
2021/03/26 04:30:14;;;;;;;17.55;10.95;;;;;;;;;;4972165;28;20059;-68
2021/03/26 04:32:40;;;;;;;14.32;9.75;;;;;;;;;;4972302;28;20465;-68
2021/03/26 04:35:09;;;;;;;15.35;10.40;;;;;;;;;;4956448;28;20178;-68
2021/03/26 04:37:59;;;;;;;15.18;10.88;;;;;;;;;;4971888;28;20593;-68
2021/03/26 04:40:52;;;;;;;19.52;10.85;;;;;;;;;;4972185;28;20055;-68
2021/03/26 04:43:29;;;;;;;16.00;10.35;;;;;;;;;;4958893;28;20046;-68
2021/03/26 04:46:09;;;;;;;20.38;11.27;;;;;;;;;;4971440;28;20101;-68
2021/03/26 04:48:59;;;;;;;16.60;11.20;;;;;;;;;;4972220;28;20051;-68
2021/03/26 04:51:39;;;;;;;19.02;11.38;;;;;;;;;;4958213;28;20090;-68
2021/03/26 04:54:30;;;;;;;14.02;10.07;;;;;;;;;;4972175;28;20101;-68
2021/03/26 04:57:04;;;;;;;15.50;9.75;;;;;;;;;;4972605;28;20475;-68
2021/03/26 04:59:52;;;;;;;19.25;11.57;;;;;;;;;;4956757;28;20054;-68
2021/03/26 05:02:20;;;;;;;15.18;10.65;;;;;;;;;;4972564;28;20131;-68
2021/03/26 05:04:46;;;;;;;18.30;11.57;;;;;;;;;;4955759;28;20125;-68
2021/03/26 05:07:47;;;;;;;19.23;11.95;;;;;;;;;;4971379;28;20082;-68
2021/03/26 05:10:15;;;;;;;16.80;10.35;;;;;;;;;;4971803;28;20051;-69
2021/03/26 05:12:51;;;;;;;19.83;11.75;;;;;;;;;;4955888;28;20055;-68
2021/03/26 05:15:27;;;;;;;18.40;11.05;;;;;;;;;;4971418;28;20046;-68
2021/03/26 05:18:13;;;;;;;20.42;11.80;;;;;;;;;;4971544;28;20078;-68
2021/03/26 05:20:46;;;;;;;19.00;10.82;;;;;;;;;;4955933;28;20058;-68
2021/03/26 05:23:18;;;;;;;17.10;11.18;;;;;;;;;;4956207;28;20498;-68
2021/03/26 05:25:46;;;;;;;21.52;12.35;;;;;;;;;;4927611;29;20052;-67
2021/03/26 05:28:17;;;;;;;21.02;11.63;;;;;;;;;;4952128;29;20090;-68
2021/03/26 05:30:44;;;;;;;17.17;10.43;;;;;;;;;;4952198;29;20399;-68
2021/03/26 05:33:29;;;;;;;19.63;11.73;;;;;;;;;;4936523;29;20051;-68
2021/03/26 05:36:16;;;;;;;20.08;12.55;;;;;;;;;;4965339;28;20047;-67
2021/03/26 05:39:04;;;;;;;19.55;12.13;;;;;;;;;;4972606;28;20105;-68
2021/03/26 05:41:48;;;;;;;23.85;12.57;;;;;;;;;;4972701;28;20086;-68
2021/03/26 05:44:33;;;;;;;21.80;11.90;;;;;;;;;;4972380;28;20466;-68
2021/03/26 05:47:22;;;;;;;21.92;12.23;;;;;;;;;;4971923;28;20057;-68
2021/03/26 05:50:15;;;;;;;20.52;12.30;;;;;;;;;;4972347;28;20050;-68
2021/03/26 05:53:07;;;;;;;21.65;12.45;;;;;;;;;;4972586;28;20426;-68
2021/03/26 05:55:43;;;;;;;22.83;12.65;;;;;;;;;;4957657;28;20047;-68
2021/03/26 05:58:12;;;;;;;19.52;12.80;;;;;;;;;;4971248;28;20054;-68
2021/03/26 06:00:53;;;;;;;26.30;13.75;;;;;;;;;;4971344;28;20051;-68
2021/03/26 06:03:43;;;;;;;;;;;;;;;;;;4973780;28;20058;-68
2021/03/26 06:06:22;;;;;;;20.60;11.52;;;;;;;;;;4975924;28;19921;-68
2021/03/26 06:09:12;;;;;;;22.83;13.18;;;;;;;;;;4976581;28;20051;-68
2021/03/26 06:12:02;;;;;;;17.05;11.90;;;;;;;;;;4976497;28;20106;-68
2021/03/26 06:14:37;;;;;;;20.13;11.93;;;;;;;;;;4969696;28;20141;-68
2021/03/26 06:17:12;;;;;;;19.27;12.52;;;;;;;;;;4953294;29;20486;-68
2021/03/26 06:20:17;;;;;;;21.25;11.40;;;;;;;;;;4955129;28;20051;-68
2021/03/26 06:23:17;;;;;;;18.02;12.00;;;;;;;;;;4954097;29;20051;-68
2021/03/26 06:26:03;;;;;;;22.92;11.50;;;;;;;;;;4957570;28;20349;-69
2021/03/26 06:28:34;;;;;;;18.50;11.02;;;;;;;;;;4953829;29;20483;-68
2021/03/26 06:31:31;;;;;;;21.33;10.85;;;;;;;;;;4953850;28;20075;-68
2021/03/26 06:34:35;;;;;;;17.35;11.00;;;;;;;;;;4964348;28;20053;-68
2021/03/26 06:37:27;;;;;;;20.17;11.30;;;;;;;;;;4973220;28;20050;-68
2021/03/26 06:40:11;;;;;;;20.10;11.27;;;;;;;;;;4972368;28;20082;-68
2021/03/26 06:43:15;;;;;;;18.08;11.05;;;;;;;;;;4973870;28;20497;-68
2021/03/26 06:45:42;;;;;;;21.25;11.32;;;;;;;;;;4973336;28;20065;-68
2021/03/26 06:48:14;;;;;;;15.65;10.48;;;;;;;;;;4973759;28;20443;-68
2021/03/26 06:50:47;;;;;;;18.05;10.65;;;;;;;;;;4973598;28;20050;-68
2021/03/26 06:53:36;;;;;;;20.00;11.05;;;;;;;;;;4971794;28;20090;-68
2021/03/26 06:56:35;;;;;;;18.80;11.60;;;;;;;;;;4955641;28;20387;-72
2021/03/26 06:59:39;;;;;;;17.98;10.93;;;;;;;;;;4971926;28;20109;-73
2021/03/26 07:02:26;;;;;;;17.27;11.38;;;;;;;;;;4973094;28;20074;-71
2021/03/26 07:05:24;;;;;;;17.67;11.75;;;;;;;;;;4972759;28;20043;-72
2021/03/26 07:07:50;;;;;;;22.92;11.32;;;;;;;;;;4957444;28;20058;-72
2021/03/26 07:10:42;;;;;;;20.63;12.35;;;;;;;;;;4972972;28;20213;-72
2021/03/26 07:13:08;;;;;;;17.17;11.23;;;;;;;;;;4973013;28;20062;-73
2021/03/26 07:16:04;;;;;;;17.70;12.20;;;;;;;;;;4971681;28;20137;-72
2021/03/26 07:19:01;;;;;;;18.85;12.10;;;;;;;;;;4972699;28;20557;-74
2021/03/26 07:21:46;;;;;;;19.70;11.98;;;;;;;;;;4972782;28;20480;-71
2021/03/26 07:24:37;;;;;;;14.57;10.82;;;;;;;;;;4973294;28;20055;-73
2021/03/26 07:27:28;;;;;;;18.17;12.52;;;;;;;;;;4972085;28;20062;-68
2021/03/26 07:30:03;;;;;;;22.20;11.45;;;;;;;;;;4972744;28;20050;-72
2021/03/26 07:32:42;;;;;;;19.25;12.38;;;;;;;;;;4972063;28;20054;-70
2021/03/26 07:35:37;;;;;;;21.52;12.02;;;;;;;;;;4970919;28;20051;-67
2021/03/26 07:38:31;;;;;;;19.50;12.57;;;;;;;;;;4958708;28;20055;-68
2021/03/26 07:41:10;;;;;;;18.42;12.15;;;;;;;;;;4974426;28;20106;-67
2021/03/26 07:43:52;;;;;;;19.60;12.48;;;;;;;;;;4973211;28;20054;-69
2021/03/26 07:46:40;;;;;;;15.82;11.45;;;;;;;;;;4973738;28;20043;-71
2021/03/26 07:49:44;;;;;;;17.13;11.95;;;;;;;;;;4974253;28;20138;-69
2021/03/26 07:52:31;;;;;;;20.15;12.57;;;;;;;;;;4974174;28;20078;-66
2021/03/26 07:55:18;;;;;;;16.63;11.50;;;;;;;;;;4972717;28;20483;-69
2021/03/26 07:58:22;;;;;;;16.83;11.82;;;;;;;;;;4974292;28;20051;-69
2021/03/26 08:01:15;;;;;;;17.08;11.75;;;;;;;;;;4974123;28;20047;-68
2021/03/26 08:03:53;;;;;;;16.40;11.45;;;;;;;;;;4972650;28;20054;-69
2021/03/26 08:06:36;;;;;;;19.52;11.02;;;;;;;;;;4966390;28;20138;-68
2021/03/26 08:09:24;;;;;;;16.60;10.95;;;;;;;;;;4979660;28;20105;-69
2021/03/26 08:12:03;;;;;;;18.58;11.15;;;;;;;;;;4971645;28;20299;-68
2021/03/26 08:14:42;;;;;;;19.75;11.68;;;;;;;;;;4988646;28;20113;-69
2021/03/26 08:17:30;;;;;;;17.70;10.50;;;;;;;;;;4971441;28;20089;-69
2021/03/26 08:20:18;;;;;;;15.68;10.50;;;;;;;;;;4972435;28;20430;-69
2021/03/26 08:22:48;;;;;;;16.13;10.38;;;;;;;;;;4973628;28;20078;-69
2021/03/26 08:25:35;;;;;;;17.75;12.68;;;;;;;;;;4973326;28;20541;-69
2021/03/26 08:28:39;;;;;;;18.40;10.88;;;;;;;;;;4972055;28;20109;-68
2021/03/26 08:31:23;;;;;;;15.90;10.23;;;;;;;;;;4973471;28;20097;-69
2021/03/26 08:34:10;;;;;;;19.38;10.93;;;;;;;;;;4973504;28;20061;-69
2021/03/26 08:36:50;;;;;;;16.27;10.57;;;;;;;;;;4972772;28;20047;-68
2021/03/26 08:39:39;;;;;;;14.45;10.63;;;;;;;;;;4973641;28;20050;-69
2021/03/26 08:42:19;;;;;;;13.63;9.70;;;;;;;;;;4972556;28;20509;-69
2021/03/26 08:45:08;;;;;;;16.00;10.10;;;;;;;;;;4972038;28;20058;-69
2021/03/26 08:47:39;;;;;;;13.60;9.73;;;;;;;;;;4972689;28;20047;-69
2021/03/26 08:50:11;;;;;;;15.25;9.98;;;;;;;;;;4956538;28;20058;-69
2021/03/26 08:52:48;;;;;;;12.50;9.13;;;;;;;;;;4972141;28;20054;-69
2021/03/26 08:55:59;;;;;;;15.30;10.55;;;;;;;;;;4971743;28;20129;-69
2021/03/26 08:58:28;;;;;;;19.15;10.70;;;;;;;;;;4971280;28;20433;-69
2021/03/26 09:01:15;;;;;;;13.90;9.82;;;;;;;;;;4972980;28;20065;-69
2021/03/26 09:04:00;;;;;;;16.02;10.80;;;;;;;;;;4972928;28;20063;-69
2021/03/26 09:06:37;;;;;;;14.05;9.75;;;;;;;;;;4972683;28;20051;-69
2021/03/26 09:09:32;;;;;;;13.60;9.77;;;;;;;;;;4971805;28;20070;-69
2021/03/26 09:12:07;;;;;;;13.95;9.98;;;;;;;;;;5001262;23;20050;-70
2021/03/26 09:14:42;;;;;;;15.23;10.05;;;;;;;;;;5011803;28;20046;-70
2021/03/26 09:17:47;;;;;;;14.32;10.10;;;;;;;;;;5010160;28;20136;-70
2021/03/26 09:20:20;;;;;;;16.70;10.32;;;;;;;;;;5010727;28;20489;-70
2021/03/26 09:22:58;;;;;;;16.75;10.20;;;;;;;;;;5002138;28;20046;-70
2021/03/26 09:25:38;;;;;;;15.73;9.75;;;;;;;;;;4959065;28;20112;-70
2021/03/26 09:28:11;;;;;;;15.60;9.80;;;;;;;;;;4990886;28;20050;-70
2021/03/26 09:30:40;;;;;;;14.00;9.82;;;;;;;;;;4959525;28;20120;-70
2021/03/26 09:33:06;;;;;;;11.90;9.20;;;;;;;;;;4974816;28;20046;-70
2021/03/26 09:35:36;;;;;;;13.35;9.73;;;;;;;;;;4991327;28;20050;-70
2021/03/26 09:38:14;;;;;;;15.35;9.95;;;;;;;;;;4993503;28;20057;-70
2021/03/26 09:40:54;;;;;;;12.70;9.13;;;;;;;;;;4996542;28;20101;-70
2021/03/26 09:43:31;;;;;;;15.27;10.38;;;;;;;;;;4980467;28;20050;-70
2021/03/26 09:46:00;;;;;;;16.40;10.82;;;;;;;;;;4995232;28;20046;-70
2021/03/26 09:48:45;;;;;;;13.52;9.98;;;;;;;;;;4995830;28;20062;-70
2021/03/26 09:51:12;;;;;;;15.80;9.18;;;;;;;;;;4994884;28;20050;-68
2021/03/26 09:53:39;;;;;;;15.13;9.52;;;;;;;;;;4995917;28;20509;-69
2021/03/26 09:56:14;;;;;;;15.73;10.40;;;;;;;;;;4961680;28;20098;-69
2021/03/26 09:58:49;;;;;;;12.88;9.68;;;;;;;;;;4979210;28;20109;-69
2021/03/26 10:01:21;;;;;;;15.25;10.43;;;;;;;;;;4979382;28;20054;-68
2021/03/26 10:03:51;;;;;;;13.68;8.93;;;;;;;;;;4978533;28;20090;-69
2021/03/26 10:06:58;;;;;;;13.95;9.23;;;;;;;;;;4979246;28;20132;-68
2021/03/26 10:12:21;;;;;;;15.30;10.70;;;;;;;;;;4964568;28;20420;-69
2021/03/26 10:14:53;;;;;;;15.77;11.68;;;;;;;;;;4962087;28;20097;-69
2021/03/26 10:17:49;;;;;;;17.50;9.82;;;;;;;;;;4994868;28;20073;-70
2021/03/26 10:20:31;;;;;;;18.38;9.82;;;;;;;;;;4995266;28;20468;-69
2021/03/26 10:23:00;;;;;;;11.95;9.73;;;;;;;;;;4995100;28;20061;-70
2021/03/26 10:25:44;;;;;;;16.00;9.88;;;;;;;;;;4994682;28;20486;-70
2021/03/26 10:28:19;;;;;;;18.13;9.32;;;;;;;;;;4962469;28;20133;-70
2021/03/26 10:30:47;;;;;;;14.55;9.02;;;;;;;;;;4994937;28;20101;-70
2021/03/26 10:33:15;;;;;;;12.63;8.63;;;;;;;;;;4977928;28;20085;-70
2021/03/26 10:36:25;;;;;;;13.65;8.02;;;;;;;;;;4993121;28;20050;-70
2021/03/26 10:38:55;;;;;;;16.23;9.02;;;;;;;;;;4957300;28;20050;-70
2021/03/26 10:41:35;;;;;;;13.40;7.95;;;;;;;;;;4994972;28;20490;-70
2021/03/26 10:44:35;;;;;;;11.65;7.43;;;;;;;;;;4978226;28;20051;-70
2021/03/26 10:47:24;;;;;;;15.43;8.27;;;;;;;;;;4994126;28;20050;-70
2021/03/26 10:49:59;;;;;;;10.55;7.07;;;;;;;;;;4961683;28;20062;-70
2021/03/26 10:52:39;;;;;;;11.30;7.22;;;;;;;;;;4978214;28;20078;-70
2021/03/26 10:55:18;;;;;;;12.77;7.70;;;;;;;;;;4962007;28;20201;-70
2021/03/26 10:57:59;;;;;;;12.07;8.10;;;;;;;;;;4994732;28;20050;-70
2021/03/26 11:00:37;;;;;;;12.93;7.38;;;;;;;;;;4979084;28;20050;-70
2021/03/26 11:03:18;;;;;;;11.05;7.28;;;;;;;;;;4977404;28;20054;-70
2021/03/26 11:05:56;;;;;;;;;;;;;;;;;;4993541;28;20046;-70
2021/03/26 11:08:35;;;;;;;10.18;7.43;;;;;;;;;;4995205;28;19922;-69
2021/03/26 11:11:04;;;;;;;13.38;7.68;;;;;;;;;;4994753;28;20050;-69
2021/03/26 11:13:35;;;;;;;11.77;7.72;;;;;;;;;;4992899;28;20505;-69
2021/03/26 11:16:22;;;;;;;12.60;7.70;;;;;;;;;;4976440;28;20677;-69
2021/03/26 11:19:06;;;;;;;12.95;7.32;;;;;;;;;;4964060;28;20058;-69
2021/03/26 11:21:45;;;;;;;11.32;7.15;;;;;;;;;;4977947;28;20505;-69
2021/03/26 11:24:11;;;;;;;14.20;7.60;;;;;;;;;;4993259;28;20050;-69
2021/03/26 11:26:45;;;;;;;13.95;7.13;;;;;;;;;;4976194;28;20050;-69
2021/03/26 11:29:33;;;;;;;9.48;6.43;;;;;;;;;;4977987;28;20109;-69
2021/03/26 11:32:15;;;;;;;11.65;5.15;;;;;;;;;;4993840;28;20524;-69
2021/03/26 11:34:49;;;;;;;7.57;4.20;;;;;;;;;;4992792;28;20050;-69
2021/03/26 11:37:22;;;;;;;4.95;3.70;;;;;;;;;;4976442;28;20302;-69
2021/03/26 11:40:19;;;;;;;10.68;4.53;;;;;;;;;;4976705;28;20054;-69
2021/03/26 11:42:54;;;;;;;8.63;3.97;;;;;;;;;;4993895;28;20489;-69
2021/03/26 11:45:35;;;;;;;8.07;4.60;;;;;;;;;;4960677;28;20077;-70
2021/03/26 11:48:14;;;;;;;5.50;3.95;;;;;;;;;;4976877;28;20093;-69
2021/03/26 11:50:49;;;;;;;6.53;3.88;;;;;;;;;;4977203;28;20050;-69
2021/03/26 11:53:39;;;;;;;4.40;3.30;;;;;;;;;;4993645;28;20082;-69
2021/03/26 11:56:16;;;;;;;4.75;3.40;;;;;;;;;;4992749;28;20070;-70
2021/03/26 11:59:05;;;;;;;7.60;3.95;;;;;;;;;;4992449;28;20077;-69
2021/03/26 12:02:01;;;;;;;7.72;3.80;;;;;;;;;;4976718;28;20129;-69
2021/03/26 12:04:46;;;;;;;7.15;3.50;;;;;;;;;;4974734;28;20065;-69
2021/03/26 12:07:18;;;;;;;5.55;4.00;;;;;;;;;;4975169;28;20082;-70
2021/03/26 12:09:56;;;;;;;8.23;3.70;;;;;;;;;;4976383;28;20054;-69
2021/03/26 12:12:31;;;;;;;5.72;3.70;;;;;;;;;;4993049;28;20050;-69
2021/03/26 12:15:22;;;;;;;5.72;3.33;;;;;;;;;;4993084;28;20078;-69
2021/03/26 12:18:15;;;;;;;4.85;3.33;;;;;;;;;;4973794;28;20054;-70
2021/03/26 12:20:42;;;;;;;6.72;3.88;;;;;;;;;;4978362;28;20054;-69
2021/03/26 12:23:32;;;;;;;6.13;3.70;;;;;;;;;;4975667;28;20050;-69
2021/03/26 12:26:16;;;;;;;6.90;3.85;;;;;;;;;;4991128;28;20120;-69
2021/03/26 12:28:54;;;;;;;6.63;3.40;;;;;;;;;;4991914;28;20081;-70
2021/03/26 12:31:37;;;;;;;5.70;3.78;;;;;;;;;;4993035;28;20054;-69
2021/03/26 12:34:39;;;;;;;6.85;3.67;;;;;;;;;;4993111;28;20050;-70
2021/03/26 12:37:07;;;;;;;7.93;4.38;;;;;;;;;;4985578;28;20133;-69
2021/03/26 12:39:41;;;;;;;6.00;3.95;;;;;;;;;;4975603;28;20054;-70
2021/03/26 12:42:15;;;;;;;7.78;4.25;;;;;;;;;;4975925;28;20054;-70
2021/03/26 12:44:42;;;;;;;5.95;4.13;;;;;;;;;;4975635;28;20182;-70
2021/03/26 12:47:25;;;;;;;6.07;4.47;;;;;;;;;;4990952;28;20054;-69
2021/03/26 12:49:56;;;;;;;5.68;4.13;;;;;;;;;;4992573;28;20061;-70
2021/03/26 12:52:54;;;;;;;5.18;3.90;;;;;;;;;;4992576;28;20077;-70
2021/03/26 12:55:30;;;;;;;8.23;4.35;;;;;;;;;;4960209;28;20109;-70
2021/03/26 12:58:19;;;;;;;5.25;3.97;;;;;;;;;;4992460;28;20470;-71
2021/03/26 13:01:09;;;;;;;8.38;4.53;;;;;;;;;;4975220;28;20493;-70
2021/03/26 13:03:55;;;;;;;4.95;3.83;;;;;;;;;;4975160;28;20109;-70
2021/03/26 13:06:34;;;;;;;7.03;4.97;;;;;;;;;;4976180;28;20497;-70
2021/03/26 13:09:34;;;;;;;7.43;4.20;;;;;;;;;;4991208;28;20133;-70
2021/03/26 13:12:11;;;;;;;6.07;4.13;;;;;;;;;;4974878;28;20527;-71
2021/03/26 13:14:48;;;;;;;7.88;4.07;;;;;;;;;;4959731;28;20105;-70
2021/03/26 13:17:22;;;;;;;5.90;3.45;;;;;;;;;;4976255;28;20047;-70
2021/03/26 13:19:49;;;;;;;6.45;3.72;;;;;;;;;;4975215;28;20104;-70
2021/03/26 13:22:28;;;;;;;5.63;3.92;;;;;;;;;;4975023;28;20054;-70
2021/03/26 13:25:25;;;;;;;6.75;3.92;;;;;;;;;;4975684;28;20101;-70
2021/03/26 13:27:54;;;;;;;5.63;3.83;;;;;;;;;;4992006;28;20073;-70
2021/03/26 13:30:49;;;;;;;8.20;3.55;;;;;;;;;;4992287;28;20081;-70
2021/03/26 13:33:27;;;;;;;6.10;3.85;;;;;;;;;;4977520;28;20073;-70
2021/03/26 13:36:17;;;;;;;6.07;3.28;;;;;;;;;;4959113;28;20053;-70
2021/03/26 13:38:46;;;;;;;3.83;2.83;;;;;;;;;;4977481;28;20097;-70
2021/03/26 13:41:37;;;;;;;4.85;2.60;;;;;;;;;;4959019;28;20050;-70
2021/03/26 13:44:18;;;;;;;4.32;3.20;;;;;;;;;;4975241;28;20050;-70
2021/03/26 13:46:48;;;;;;;4.15;3.10;;;;;;;;;;4991299;28;20633;-70
2021/03/26 13:49:25;;;;;;;4.78;3.10;;;;;;;;;;4974911;28;20062;-70
2021/03/26 13:51:54;;;;;;;4.93;3.08;;;;;;;;;;4974538;28;20050;-70
2021/03/26 13:54:20;;;;;;;4.50;2.40;;;;;;;;;;4959086;28;20080;-70
2021/03/26 13:56:50;;;;;;;3.92;2.65;;;;;;;;;;4991163;28;20493;-70
2021/03/26 13:59:40;;;;;;;5.03;3.00;;;;;;;;;;4975003;28;20109;-70
2021/03/26 14:02:34;;;;;;;5.60;2.92;;;;;;;;;;4960684;28;20058;-69
2021/03/26 14:05:22;;;;;;;5.07;3.50;;;;;;;;;;4978192;28;20121;-70
2021/03/26 14:08:23;;;;;;;4.70;2.75;;;;;;;;;;4963666;28;20421;-70
2021/03/26 14:11:03;;;;;;;3.63;3.10;;;;;;;;;;4977063;28;20125;-69
2021/03/26 14:13:43;;;;;;;5.10;3.10;;;;;;;;;;4976139;28;20140;-70
2021/03/26 14:16:19;;;;;;;6.03;2.83;;;;;;;;;;4974056;28;20464;-70
2021/03/26 14:18:50;;;;;;;3.17;2.28;;;;;;;;;;4990449;28;20497;-69
2021/03/26 14:21:50;;;;;;;3.08;2.30;;;;;;;;;;4974927;28;20054;-70
2021/03/26 14:24:43;;;;;;;4.75;2.60;;;;;;;;;;4970435;28;20070;-69
2021/03/26 14:27:14;;;;;;;4.05;2.42;;;;;;;;;;4977359;28;20144;-70
2021/03/26 14:30:22;;;;;;;6.38;2.47;;;;;;;;;;4978260;28;20050;-69
2021/03/26 14:33:00;;;;;;;3.10;2.00;;;;;;;;;;4995029;28;20050;-69
2021/03/26 14:35:47;;;;;;;3.13;1.95;;;;;;;;;;4994339;28;20052;-69
2021/03/26 14:38:22;;;;;;;3.97;2.95;;;;;;;;;;4994950;28;20441;-70
2021/03/26 14:40:48;;;;;;;6.30;1.55;;;;;;;;;;4994916;28;20050;-69
2021/03/26 14:43:14;;;;;;;2.67;1.60;;;;;;;;;;4977463;28;20093;-70
2021/03/26 14:45:45;;;;;;;3.10;1.58;;;;;;;;;;4976974;28;20097;-70
2021/03/26 14:48:20;;;;;;;2.15;1.55;;;;;;;;;;4977773;28;20050;-71
2021/03/26 14:50:56;;;;;;;2.15;1.50;;;;;;;;;;4993612;28;20493;-71
2021/03/26 14:53:24;;;;;;;2.63;1.63;;;;;;;;;;4978909;28;20065;-70
2021/03/26 14:55:52;;;;;;;5.28;1.88;;;;;;;;;;4976722;28;20125;-70
2021/03/26 14:58:32;;;;;;;3.33;1.65;;;;;;;;;;4977570;28;20046;-70
2021/03/26 15:01:23;;;;;;;3.88;1.85;;;;;;;;;;4977771;28;20471;-71
2021/03/26 15:03:58;;;;;;;2.42;1.65;;;;;;;;;;4994468;28;20055;-70
2021/03/26 15:06:44;;;;;;;2.55;1.50;;;;;;;;;;4993900;28;20050;-70
2021/03/26 15:09:47;;;;;;;6.03;2.03;;;;;;;;;;4977880;28;20050;-71
2021/03/26 15:12:19;;;;;;;2.30;1.75;;;;;;;;;;4973040;28;20066;-71
2021/03/26 15:14:57;;;;;;;2.20;1.90;;;;;;;;;;4994192;28;20085;-71
2021/03/26 15:17:40;;;;;;;3.03;2.05;;;;;;;;;;4993677;28;20082;-72
2021/03/26 15:20:28;;;;;;;4.50;1.90;;;;;;;;;;4976916;28;20061;-71
2021/03/26 15:23:16;;;;;;;4.88;2.40;;;;;;;;;;4978207;28;20108;-71
2021/03/26 15:26:23;;;;;;;2.55;1.90;;;;;;;;;;4993503;28;20052;-71
2021/03/26 15:29:07;;;;;;;3.75;2.13;;;;;;;;;;4895914;29;20056;-71
2021/03/26 15:31:37;;;;;;;3.15;1.60;;;;;;;;;;4975490;28;20050;-71
2021/03/26 15:34:18;;;;;;;2.58;1.83;;;;;;;;;;4993864;28;20050;-69
2021/03/26 15:36:48;;;;;;;2.97;1.95;;;;;;;;;;4975479;28;20125;-70
2021/03/26 15:39:20;;;;;;;4.03;1.60;;;;;;;;;;4977117;28;20101;-71